Williana, Louisiana
Current Conditions -  °F | °C
As of 2:53 PM on Friday 24 Oct 2014 (Local Time) from KAEX Reporting Station
Clear Clear  
Wind Chill: 75°   Ceiling: Unl
Heat Index: 75°   Visibility: 10mi
Dew Point: 43°   Wind: 6mph
Humidity: 32%   Direction: 10°N
Pressure: 30.08"   Gusts: NA
Location:  31.6531°N, 92.5571°W
Report Text: KAEX 241953Z 01005KT 10SM CLR 24/06 A3008 RMK AO2 SLP191 T02390061
Loading
Personal Weather Stations






























Interactive Weather Map New forecast layout! Learn more

10-Day Weather Forecast

Advertisements
Track Severe Weather on mobile